createdAt,value
2023-06-25T00:00:16.096Z,18.00
2023-06-25T00:02:44.913Z,17.90
2023-06-25T00:05:13.784Z,17.80
2023-06-25T00:07:43.180Z,17.70
2023-06-25T00:10:12.562Z,17.80
2023-06-25T00:12:41.488Z,17.80
2023-06-25T00:15:12.793Z,17.70
2023-06-25T00:17:43.024Z,17.70
2023-06-25T00:20:13.456Z,17.80
2023-06-25T00:22:48.056Z,17.70
2023-06-25T00:25:28.068Z,17.50
2023-06-25T00:27:59.411Z,17.50
2023-06-25T00:30:28.422Z,17.50
2023-06-25T00:32:58.817Z,17.40
2023-06-25T00:35:29.343Z,17.50
2023-06-25T00:38:02.719Z,17.50
2023-06-25T00:40:31.575Z,17.40
2023-06-25T00:43:00.414Z,17.30
2023-06-25T00:45:29.331Z,17.20
2023-06-25T00:48:01.028Z,17.30
2023-06-25T00:50:30.137Z,17.30
2023-06-25T00:52:59.236Z,17.30
2023-06-25T00:55:28.127Z,17.30
2023-06-25T00:57:58.757Z,17.20
2023-06-25T01:00:29.009Z,17.30
2023-06-25T01:03:06.137Z,17.20
2023-06-25T01:05:44.970Z,17.10
2023-06-25T01:08:15.302Z,17.00
2023-06-25T01:10:45.480Z,17.00
2023-06-25T01:13:14.350Z,17.00
2023-06-25T01:15:43.412Z,17.00
2023-06-25T01:18:15.317Z,17.00
2023-06-25T01:20:44.540Z,17.00
2023-06-25T01:23:14.884Z,16.90
2023-06-25T01:25:48.490Z,16.90
2023-06-25T01:28:21.373Z,16.80
2023-06-25T01:30:53.519Z,16.80
2023-06-25T01:33:22.975Z,16.80
2023-06-25T01:35:51.813Z,16.70
2023-06-25T01:38:22.487Z,16.70
2023-06-25T01:40:51.244Z,16.80
2023-06-25T01:43:20.057Z,16.80
2023-06-25T01:45:48.950Z,16.80
2023-06-25T01:48:18.313Z,16.70
2023-06-25T01:50:47.306Z,16.80
2023-06-25T01:53:16.128Z,16.80
2023-06-25T01:55:46.424Z,16.80
2023-06-25T01:58:15.227Z,16.80
2023-06-25T02:00:44.050Z,16.80
2023-06-25T02:03:12.816Z,16.80
2023-06-25T02:05:43.260Z,16.70
2023-06-25T02:08:12.033Z,16.60
2023-06-25T02:10:40.856Z,16.50
2023-06-25T02:13:11.082Z,16.40
2023-06-25T02:15:40.118Z,16.50
2023-06-25T02:18:09.540Z,16.50
2023-06-25T02:20:38.259Z,16.40
2023-06-25T02:23:07.056Z,16.40
2023-06-25T02:25:36.134Z,16.20
2023-06-25T02:28:05.194Z,16.30
2023-06-25T02:30:35.373Z,16.20
2023-06-25T02:33:04.268Z,16.10
2023-06-25T02:35:33.356Z,16.10
2023-06-25T02:38:02.303Z,16.00
2023-06-25T02:40:31.452Z,15.90
2023-06-25T02:43:00.482Z,15.90
2023-06-25T02:45:29.256Z,15.80
2023-06-25T02:47:59.470Z,15.90
2023-06-25T02:50:28.258Z,16.00
2023-06-25T02:52:57.089Z,16.00
2023-06-25T02:55:25.848Z,16.20
2023-06-25T02:57:54.628Z,16.30
2023-06-25T03:00:23.502Z,16.40
2023-06-25T03:02:52.396Z,16.40
2023-06-25T03:05:22.767Z,16.50
2023-06-25T03:07:52.976Z,16.50
2023-06-25T03:10:22.669Z,16.60
2023-06-25T03:12:51.421Z,16.60
2023-06-25T03:15:20.357Z,16.60
2023-06-25T03:17:49.593Z,16.60
2023-06-25T03:20:18.544Z,16.60
2023-06-25T03:22:48.986Z,16.60
2023-06-25T03:25:17.826Z,16.60
2023-06-25T03:27:46.593Z,16.60
2023-06-25T03:30:15.504Z,16.60
2023-06-25T03:32:45.956Z,16.60
2023-06-25T03:35:14.785Z,16.40
2023-06-25T03:37:43.564Z,16.40
2023-06-25T03:40:15.271Z,16.40
2023-06-25T03:42:44.034Z,16.40
2023-06-25T03:45:14.523Z,16.40
2023-06-25T03:47:43.428Z,16.40
2023-06-25T03:50:12.608Z,16.40
2023-06-25T03:52:41.430Z,16.40
2023-06-25T03:55:10.830Z,16.40
2023-06-25T03:57:41.069Z,16.30
2023-06-25T04:00:11.053Z,16.30
2023-06-25T04:02:40.051Z,16.40
2023-06-25T04:05:09.388Z,16.40
2023-06-25T04:07:38.114Z,16.40
2023-06-25T04:10:07.789Z,16.50
2023-06-25T04:12:36.560Z,16.60
2023-06-25T04:15:07.807Z,16.60
2023-06-25T04:17:36.638Z,16.70
2023-06-25T04:20:06.248Z,16.80
2023-06-25T04:22:35.056Z,16.90
2023-06-25T04:25:04.392Z,16.90
2023-06-25T04:27:33.268Z,16.90
2023-06-25T04:30:02.064Z,17.00
2023-06-25T04:32:34.452Z,17.20
2023-06-25T04:35:03.446Z,17.10
2023-06-25T04:37:32.358Z,17.10
2023-06-25T04:40:02.038Z,17.30
2023-06-25T04:42:30.864Z,17.40
2023-06-25T04:44:59.656Z,17.50
2023-06-25T04:47:29.089Z,17.40
2023-06-25T04:49:59.447Z,17.50
2023-06-25T04:52:28.224Z,17.50
2023-06-25T04:54:57.171Z,17.60
2023-06-25T04:57:26.038Z,17.60
2023-06-25T04:59:54.888Z,17.70
2023-06-25T05:02:23.645Z,17.90
2023-06-25T05:04:52.403Z,17.80
2023-06-25T05:07:22.681Z,17.90
2023-06-25T05:09:51.650Z,18.00
2023-06-25T05:12:20.566Z,18.20
2023-06-25T05:14:49.328Z,18.20
2023-06-25T05:17:18.239Z,18.20
2023-06-25T05:19:47.796Z,18.40
2023-06-25T05:22:16.617Z,18.50
2023-06-25T05:24:46.864Z,18.70
2023-06-25T05:27:15.688Z,18.50
2023-06-25T05:29:47.455Z,18.60
2023-06-25T05:32:18.011Z,18.70
2023-06-25T05:34:46.862Z,18.70
2023-06-25T05:37:15.621Z,18.70
2023-06-25T05:39:45.807Z,19.00
2023-06-25T05:42:14.646Z,19.10
2023-06-25T05:44:43.474Z,19.10
2023-06-25T05:47:12.378Z,19.20
2023-06-25T05:49:41.235Z,19.30
2023-06-25T05:52:10.534Z,19.40
2023-06-25T05:54:40.155Z,19.40
2023-06-25T05:57:10.641Z,19.40
2023-06-25T05:59:40.407Z,19.60
2023-06-25T06:02:10.478Z,19.80
2023-06-25T06:04:39.297Z,19.80
2023-06-25T06:07:08.345Z,19.80
2023-06-25T06:09:38.330Z,19.80
2023-06-25T06:12:08.181Z,19.90
2023-06-25T06:14:39.755Z,20.20
2023-06-25T06:17:09.300Z,20.40
2023-06-25T06:19:38.180Z,20.30
2023-06-25T06:22:08.189Z,20.40
2023-06-25T06:24:36.992Z,20.40
2023-06-25T06:27:06.418Z,20.60
2023-06-25T06:29:35.256Z,20.60
2023-06-25T06:32:06.226Z,20.80
2023-06-25T06:34:35.056Z,21.00
2023-06-25T06:37:04.127Z,21.20
2023-06-25T06:39:32.894Z,21.20
2023-06-25T06:42:01.805Z,21.30
2023-06-25T06:44:32.382Z,21.20
2023-06-25T06:47:01.297Z,21.40
2023-06-25T06:49:31.717Z,21.30
2023-06-25T06:52:02.548Z,21.40
2023-06-25T06:54:31.620Z,21.50
2023-06-25T06:57:00.494Z,21.80
2023-06-25T06:59:29.336Z,21.90
2023-06-25T07:01:58.192Z,22.10
2023-06-25T07:04:27.067Z,22.40
2023-06-25T07:06:57.389Z,22.70
2023-06-25T07:09:27.977Z,23.40
2023-06-25T07:11:56.824Z,24.10
2023-06-25T07:14:25.702Z,24.90
2023-06-25T07:16:54.588Z,25.70
2023-06-25T07:19:23.443Z,26.50
2023-06-25T07:21:52.321Z,27.40
2023-06-25T07:24:22.643Z,27.80
2023-06-25T07:26:51.552Z,28.50
2023-06-25T07:29:20.564Z,29.20
2023-06-25T07:31:49.533Z,29.60
2023-06-25T07:34:18.602Z,30.20
2023-06-25T07:36:47.501Z,30.20
2023-06-25T07:39:30.674Z,31.00
2023-06-25T07:42:00.291Z,31.60
2023-06-25T07:47:01.121Z,31.70
2023-06-25T07:49:29.997Z,32.30
2023-06-25T07:51:58.969Z,33.10
2023-06-25T07:54:29.275Z,32.90
2023-06-25T07:56:58.125Z,33.50
2023-06-25T07:59:35.709Z,33.80
2023-06-25T08:02:15.815Z,34.50
2023-06-25T08:04:44.701Z,35.10
2023-06-25T08:07:13.635Z,35.30
2023-06-25T08:09:45.344Z,36.30
2023-06-25T08:12:16.248Z,36.80
2023-06-25T08:14:46.791Z,37.10
2023-06-25T08:17:17.481Z,36.90
2023-06-25T08:19:47.254Z,37.30
2023-06-25T08:22:16.158Z,37.50
2023-06-25T08:24:46.409Z,38.60
2023-06-25T08:27:15.255Z,38.90
2023-06-25T08:29:45.035Z,39.20
2023-06-25T08:32:13.980Z,38.70
2023-06-25T08:34:43.632Z,37.90
2023-06-25T08:37:12.765Z,36.60
2023-06-25T08:39:41.956Z,36.20
2023-06-25T08:42:12.938Z,36.20
2023-06-25T08:44:41.836Z,35.50
2023-06-25T08:47:12.398Z,34.50
2023-06-25T08:49:45.252Z,33.60
2023-06-25T08:52:14.958Z,33.70
2023-06-25T08:54:45.897Z,34.20
2023-06-25T08:57:16.273Z,34.30
2023-06-25T08:59:45.239Z,34.30
2023-06-25T09:02:14.281Z,34.50
2023-06-25T09:04:44.614Z,34.60
2023-06-25T09:07:17.454Z,34.90
2023-06-25T09:09:46.481Z,34.40
2023-06-25T09:12:16.819Z,34.60
2023-06-25T09:14:45.956Z,35.00
2023-06-25T09:17:14.784Z,35.40
2023-06-25T09:19:45.914Z,36.10
2023-06-25T09:22:14.793Z,37.10
2023-06-25T09:24:45.309Z,36.40
2023-06-25T09:27:15.793Z,36.10
2023-06-25T09:29:45.491Z,35.50
2023-06-25T09:32:14.530Z,35.40
2023-06-25T09:34:44.202Z,34.80
2023-06-25T09:37:13.089Z,34.30
2023-06-25T09:39:42.574Z,35.00
2023-06-25T09:42:11.958Z,35.10
2023-06-25T09:44:43.191Z,35.10
2023-06-25T09:47:16.023Z,35.30
2023-06-25T09:49:45.340Z,36.00
2023-06-25T09:52:16.556Z,35.80
2023-06-25T09:54:46.846Z,35.40
2023-06-25T09:57:19.047Z,36.10
2023-06-25T09:59:49.354Z,35.90
2023-06-25T10:02:19.316Z,35.60
2023-06-25T10:04:48.366Z,36.10
2023-06-25T10:07:17.309Z,36.30
2023-06-25T10:09:54.922Z,36.40
2023-06-25T10:12:24.042Z,37.20
2023-06-25T10:14:55.789Z,38.00
2023-06-25T10:17:26.128Z,37.80
2023-06-25T10:19:55.725Z,37.40
2023-06-25T10:22:25.669Z,37.20
2023-06-25T10:24:55.784Z,37.30
2023-06-25T10:27:30.458Z,37.40
2023-06-25T10:30:01.016Z,38.50
2023-06-25T10:32:31.510Z,40.10
2023-06-25T10:35:03.476Z,40.90
2023-06-25T10:37:33.412Z,40.10
2023-06-25T10:40:07.246Z,40.00
2023-06-25T10:42:36.730Z,41.20
2023-06-25T10:45:08.226Z,41.50
2023-06-25T10:47:37.441Z,41.60
2023-06-25T10:50:06.996Z,42.20
2023-06-25T10:52:36.978Z,43.40
2023-06-25T10:55:06.387Z,44.30
2023-06-25T10:57:35.309Z,44.10
2023-06-25T11:00:04.609Z,43.10
2023-06-25T11:02:35.112Z,43.10
2023-06-25T11:05:04.416Z,44.10
2023-06-25T11:07:33.557Z,43.30
2023-06-25T11:10:03.281Z,43.20
2023-06-25T11:12:32.260Z,42.90
2023-06-25T11:15:01.120Z,42.80
2023-06-25T11:17:30.159Z,43.10
2023-06-25T11:20:00.574Z,42.00
2023-06-25T11:22:30.100Z,41.60
2023-06-25T11:24:59.982Z,41.50
2023-06-25T11:27:31.242Z,41.70
2023-06-25T11:30:00.477Z,42.20
2023-06-25T11:32:32.792Z,43.30
2023-06-25T11:35:12.758Z,44.30
2023-06-25T11:37:49.122Z,44.40
2023-06-25T11:40:26.381Z,44.50
2023-06-25T11:42:55.591Z,44.40
2023-06-25T11:45:25.194Z,45.00
2023-06-25T11:47:56.135Z,46.10
2023-06-25T11:50:27.084Z,44.50
2023-06-25T11:52:58.120Z,41.90
2023-06-25T11:55:26.972Z,41.90
2023-06-25T11:57:55.810Z,42.20
2023-06-25T12:00:25.251Z,43.10
2023-06-25T12:02:54.274Z,43.00
2023-06-25T12:05:23.887Z,42.30
2023-06-25T12:07:54.484Z,42.60
2023-06-25T12:10:23.611Z,43.40
2023-06-25T12:12:54.033Z,44.80
2023-06-25T12:15:22.893Z,45.60
2023-06-25T12:17:51.798Z,46.00
2023-06-25T12:20:20.789Z,45.80
2023-06-25T12:22:49.903Z,44.20
2023-06-25T12:25:26.126Z,43.20
2023-06-25T12:27:56.280Z,42.00
2023-06-25T12:30:26.601Z,41.40
2023-06-25T12:32:56.952Z,42.10
2023-06-25T12:35:26.284Z,42.10
2023-06-25T12:37:55.172Z,41.50
2023-06-25T12:40:25.436Z,40.30
2023-06-25T12:42:56.454Z,40.00
2023-06-25T12:45:25.611Z,41.00
2023-06-25T12:47:54.522Z,39.80
2023-06-25T12:50:23.433Z,39.50
2023-06-25T12:52:52.431Z,40.10
2023-06-25T12:55:21.343Z,40.00
2023-06-25T12:57:51.638Z,38.50
2023-06-25T13:00:33.511Z,37.40
2023-06-25T13:03:10.186Z,37.90
2023-06-25T13:05:39.404Z,38.80
2023-06-25T13:08:08.554Z,39.20
2023-06-25T13:10:37.526Z,40.30
2023-06-25T13:13:08.537Z,41.50
2023-06-25T13:15:38.067Z,42.10
2023-06-25T13:18:07.481Z,42.90
2023-06-25T13:20:36.369Z,44.00
2023-06-25T13:23:05.633Z,44.20
2023-06-25T13:25:38.994Z,42.00
2023-06-25T13:28:09.625Z,41.80
2023-06-25T13:30:38.572Z,42.10
2023-06-25T13:33:07.645Z,43.10
2023-06-25T13:35:36.738Z,43.70
2023-06-25T13:38:05.837Z,43.60
2023-06-25T13:40:34.889Z,42.90
2023-06-25T13:43:03.755Z,42.50
2023-06-25T13:45:34.185Z,43.50
2023-06-25T13:48:03.283Z,44.90
2023-06-25T13:50:32.358Z,45.10
2023-06-25T13:53:01.383Z,44.00
2023-06-25T13:55:30.869Z,42.00
2023-06-25T13:57:59.916Z,42.50
2023-06-25T14:00:28.914Z,41.90
2023-06-25T14:03:11.981Z,42.10
2023-06-25T14:05:42.628Z,41.60
2023-06-25T14:08:12.037Z,41.90
2023-06-25T14:10:41.150Z,41.70
2023-06-25T14:13:12.124Z,42.00
2023-06-25T14:15:44.510Z,41.80
2023-06-25T14:18:15.497Z,41.60
2023-06-25T14:20:44.645Z,41.60
2023-06-25T14:23:13.566Z,40.60
2023-06-25T14:25:42.448Z,40.00
2023-06-25T14:28:11.392Z,39.20
2023-06-25T14:30:40.282Z,39.00
2023-06-25T14:33:09.245Z,39.00
2023-06-25T14:35:39.764Z,38.60
2023-06-25T14:38:08.809Z,38.80
2023-06-25T14:40:37.885Z,38.40
2023-06-25T14:43:06.754Z,37.40
2023-06-25T14:45:35.902Z,36.30
2023-06-25T14:48:05.126Z,35.50
2023-06-25T14:50:34.871Z,34.80
2023-06-25T14:53:06.365Z,34.30
2023-06-25T14:55:40.917Z,34.10
2023-06-25T14:58:10.370Z,34.10
2023-06-25T15:00:39.465Z,34.20
2023-06-25T15:03:08.461Z,34.10
2023-06-25T15:05:37.640Z,33.70
2023-06-25T15:08:08.388Z,33.40
2023-06-25T15:10:37.286Z,33.00
2023-06-25T15:13:06.229Z,32.70
2023-06-25T15:15:35.442Z,32.30
2023-06-25T15:18:04.498Z,31.80
2023-06-25T15:20:33.461Z,31.60
2023-06-25T15:23:02.339Z,31.10
2023-06-25T15:25:32.677Z,31.00
2023-06-25T15:28:02.783Z,31.20
2023-06-25T15:30:31.943Z,31.40
2023-06-25T15:33:00.958Z,31.50
2023-06-25T15:35:30.047Z,31.20
2023-06-25T15:37:59.829Z,31.00
2023-06-25T15:40:29.144Z,30.80
2023-06-25T15:42:59.555Z,30.70
2023-06-25T15:45:28.530Z,30.50
2023-06-25T15:47:57.524Z,30.50
2023-06-25T15:50:26.883Z,30.50
2023-06-25T15:52:55.837Z,30.50
2023-06-25T15:55:24.839Z,30.30
2023-06-25T15:57:53.860Z,30.10
2023-06-25T16:00:24.390Z,30.10
2023-06-25T16:02:53.431Z,29.90
2023-06-25T16:05:22.409Z,29.70
2023-06-25T16:07:51.354Z,29.40
2023-06-25T16:10:20.479Z,29.30
2023-06-25T16:12:50.576Z,29.10
2023-06-25T16:15:19.671Z,29.10
2023-06-25T16:17:50.314Z,29.00
2023-06-25T16:20:19.311Z,29.00
2023-06-25T16:22:48.339Z,28.70
2023-06-25T16:25:17.335Z,28.60
2023-06-25T16:27:46.249Z,28.60
2023-06-25T16:30:15.372Z,28.60
2023-06-25T16:32:44.464Z,28.50
2023-06-25T16:35:14.772Z,28.50
2023-06-25T16:37:43.835Z,28.70
2023-06-25T16:40:13.667Z,28.80
2023-06-25T16:42:42.578Z,28.60
2023-06-25T16:45:11.549Z,28.60
2023-06-25T16:47:40.417Z,28.50
2023-06-25T16:50:10.001Z,28.20
2023-06-25T16:52:40.398Z,28.10
2023-06-25T16:55:09.689Z,28.20
2023-06-25T16:57:38.730Z,28.10
2023-06-25T17:00:08.811Z,28.20
2023-06-25T17:02:37.979Z,28.20
2023-06-25T17:05:10.405Z,28.20
2023-06-25T17:07:43.512Z,28.00
2023-06-25T17:10:12.534Z,27.70
2023-06-25T17:12:41.720Z,27.70
2023-06-25T17:15:11.549Z,27.70
2023-06-25T17:17:40.652Z,27.70
2023-06-25T17:20:10.495Z,27.50
2023-06-25T17:22:40.936Z,27.30
2023-06-25T17:25:10.630Z,27.30
2023-06-25T17:27:39.914Z,27.30
2023-06-25T17:30:10.254Z,27.30
2023-06-25T17:32:39.233Z,27.20
2023-06-25T17:35:08.985Z,27.00
2023-06-25T17:37:37.818Z,27.10
2023-06-25T17:40:09.351Z,27.20
2023-06-25T17:42:38.487Z,27.00
2023-06-25T17:45:08.523Z,27.00
2023-06-25T17:47:39.405Z,27.00
2023-06-25T17:50:10.257Z,27.00
2023-06-25T17:52:39.310Z,27.10
2023-06-25T17:55:10.578Z,27.10
2023-06-25T17:57:39.672Z,26.80
2023-06-25T18:00:11.159Z,26.70
2023-06-25T18:02:40.454Z,26.80
2023-06-25T18:05:10.337Z,26.70
2023-06-25T18:07:39.375Z,26.70
2023-06-25T18:10:13.645Z,26.60
2023-06-25T18:12:42.504Z,26.60
2023-06-25T18:15:11.973Z,26.50
2023-06-25T18:17:43.852Z,26.30
2023-06-25T18:20:16.262Z,26.30
2023-06-25T18:22:50.866Z,26.20
2023-06-25T18:25:21.964Z,26.20
2023-06-25T18:27:53.663Z,26.10
2023-06-25T18:30:23.599Z,26.00
2023-06-25T18:32:55.401Z,26.00
2023-06-25T18:35:25.406Z,25.90
2023-06-25T18:37:55.611Z,25.90
2023-06-25T18:40:27.378Z,25.70
2023-06-25T18:42:58.928Z,25.60
2023-06-25T18:45:29.239Z,25.60
2023-06-25T18:47:59.634Z,25.40
2023-06-25T18:50:30.001Z,25.40
2023-06-25T18:53:01.005Z,25.20
2023-06-25T18:55:32.972Z,25.00
2023-06-25T18:58:03.362Z,24.90
2023-06-25T19:00:33.557Z,24.80
2023-06-25T19:03:02.838Z,24.70
2023-06-25T19:05:32.001Z,24.60
2023-06-25T19:08:02.931Z,24.60
2023-06-25T19:10:36.598Z,24.50
2023-06-25T19:13:07.269Z,24.50
2023-06-25T19:15:37.420Z,24.40
2023-06-25T19:18:07.748Z,24.30
2023-06-25T19:20:38.149Z,24.20
2023-06-25T19:25:41.678Z,23.90
2023-06-25T19:28:10.857Z,23.80
2023-06-25T19:30:41.388Z,23.70
2023-06-25T19:33:11.908Z,23.60
2023-06-25T19:35:44.589Z,23.50
2023-06-25T19:38:14.947Z,23.40
2023-06-25T19:40:54.870Z,23.30
2023-06-25T19:43:30.843Z,23.20
2023-06-25T19:46:00.947Z,23.10
2023-06-25T19:48:31.021Z,23.10
2023-06-25T19:51:00.591Z,22.90
2023-06-25T19:53:34.447Z,22.80
2023-06-25T19:56:05.970Z,22.70
2023-06-25T19:58:39.853Z,22.70
2023-06-25T20:01:11.702Z,22.70
2023-06-25T20:03:41.720Z,22.70
2023-06-25T20:06:11.594Z,22.60
2023-06-25T20:08:42.638Z,22.50
2023-06-25T20:11:13.349Z,22.50
2023-06-25T20:13:43.298Z,22.40
2023-06-25T20:16:12.151Z,22.40
2023-06-25T20:18:41.340Z,22.30
2023-06-25T20:21:11.054Z,22.30
2023-06-25T20:23:40.002Z,22.20
2023-06-25T20:26:08.982Z,22.10
2023-06-25T20:28:39.809Z,21.90
2023-06-25T20:31:11.452Z,21.80
2023-06-25T20:33:43.043Z,21.80
2023-06-25T20:36:14.187Z,21.70
2023-06-25T20:38:43.358Z,21.70
2023-06-25T20:41:31.049Z,21.60
2023-06-25T20:44:02.659Z,21.40
2023-06-25T20:46:32.038Z,21.40
2023-06-25T20:49:01.338Z,21.40
2023-06-25T20:51:30.308Z,21.30
2023-06-25T20:53:59.416Z,21.30
2023-06-25T20:56:28.794Z,21.30
2023-06-25T20:58:58.095Z,21.30
2023-06-25T21:01:28.591Z,21.30
2023-06-25T21:03:57.518Z,21.30
2023-06-25T21:06:27.881Z,21.30
2023-06-25T21:08:56.801Z,21.20
2023-06-25T21:11:25.697Z,21.20
2023-06-25T21:14:02.387Z,21.10
2023-06-25T21:16:36.213Z,21.10
2023-06-25T21:19:07.564Z,21.10
2023-06-25T21:21:41.100Z,21.00
2023-06-25T21:24:11.595Z,20.90
2023-06-25T21:26:43.361Z,20.70
2023-06-25T21:29:12.319Z,20.70
2023-06-25T21:31:42.754Z,20.60
2023-06-25T21:34:11.591Z,20.60
2023-06-25T21:36:40.852Z,20.60
2023-06-25T21:39:09.726Z,20.50
2023-06-25T21:41:38.556Z,20.50
2023-06-25T21:44:07.611Z,20.50
2023-06-25T21:46:37.013Z,20.40
2023-06-25T21:49:07.358Z,20.40
2023-06-25T21:51:36.287Z,20.20
2023-06-25T21:54:05.354Z,20.30
2023-06-25T21:56:34.304Z,20.30
2023-06-25T21:59:04.056Z,20.30
2023-06-25T22:01:32.870Z,20.30
2023-06-25T22:04:01.891Z,20.20
2023-06-25T22:06:44.973Z,20.10
2023-06-25T22:09:22.027Z,20.20
2023-06-25T22:11:51.375Z,20.10
2023-06-25T22:14:20.416Z,20.10
2023-06-25T22:16:49.540Z,20.20
2023-06-25T22:19:22.844Z,20.20
2023-06-25T22:21:53.340Z,20.20
2023-06-25T22:24:22.224Z,20.10
2023-06-25T22:26:51.215Z,20.00
2023-06-25T22:29:25.601Z,20.00
2023-06-25T22:32:04.637Z,20.00
2023-06-25T22:34:34.440Z,20.00
2023-06-25T22:37:05.170Z,19.80
2023-06-25T22:39:34.063Z,19.90
2023-06-25T22:42:02.913Z,19.80
2023-06-25T22:44:31.817Z,19.70
2023-06-25T22:47:00.745Z,19.80
2023-06-25T22:49:33.386Z,19.70
2023-06-25T22:52:04.241Z,19.70
2023-06-25T22:54:33.163Z,19.70
2023-06-25T22:57:02.166Z,19.70
2023-06-25T22:59:31.111Z,19.70
2023-06-25T23:02:00.083Z,19.70
2023-06-25T23:04:29.144Z,19.60
2023-06-25T23:06:58.434Z,19.60
2023-06-25T23:09:28.813Z,19.60
2023-06-25T23:11:57.736Z,19.50
2023-06-25T23:14:26.652Z,19.60
2023-06-25T23:16:55.569Z,19.50
2023-06-25T23:19:24.946Z,19.50
2023-06-25T23:21:53.930Z,19.50
2023-06-25T23:24:22.973Z,19.50
2023-06-25T23:26:53.328Z,19.50
2023-06-25T23:29:22.828Z,19.30
2023-06-25T23:31:51.804Z,19.30
2023-06-25T23:34:20.945Z,19.20
2023-06-25T23:36:49.932Z,19.20
2023-06-25T23:39:19.834Z,19.20
2023-06-25T23:41:48.757Z,19.20
2023-06-25T23:44:19.133Z,19.20
2023-06-25T23:46:48.186Z,19.20
2023-06-25T23:49:18.032Z,19.10
2023-06-25T23:51:46.964Z,19.10
2023-06-25T23:54:15.777Z,19.10
2023-06-25T23:56:44.624Z,19.00
2023-06-25T23:59:13.565Z,19.00
